sensor_id;sensor_type;location;lat;lon;timestamp;pressure;altitude;pressure_sealevel;temperature;humidity
21129;BME280;10722;51.910;8.352;2022-12-29T00:01:18;99554.53;;;9.75;100.00
21129;BME280;10722;51.910;8.352;2022-12-29T00:04:04;99550.19;;;9.68;100.00
21129;BME280;10722;51.910;8.352;2022-12-29T00:06:56;99560.56;;;9.80;100.00
21129;BME280;10722;51.910;8.352;2022-12-29T00:09:42;99543.34;;;9.81;100.00
21129;BME280;10722;51.910;8.352;2022-12-29T00:12:27;99533.88;;;9.78;100.00
21129;BME280;10722;51.910;8.352;2022-12-29T00:15:12;99533.00;;;9.75;100.00
21129;BME280;10722;51.910;8.352;2022-12-29T00:17:57;99533.88;;;9.78;100.00
21129;BME280;10722;51.910;8.352;2022-12-29T00:20:43;99537.31;;;9.77;100.00
21129;BME280;10722;51.910;8.352;2022-12-29T00:23:28;99522.69;;;9.78;100.00
21129;BME280;10722;51.910;8.352;2022-12-29T00:26:15;99513.22;;;9.78;100.00
21129;BME280;10722;51.910;8.352;2022-12-29T00:29:01;99502.88;;;9.84;100.00
21129;BME280;10722;51.910;8.352;2022-12-29T00:31:47;99505.47;;;9.78;100.00
21129;BME280;10722;51.910;8.352;2022-12-29T00:34:32;99503.75;;;9.80;100.00
21129;BME280;10722;51.910;8.352;2022-12-29T00:37:18;99508.91;;;9.76;100.00
21129;BME280;10722;51.910;8.352;2022-12-29T00:40:03;99516.66;;;9.73;100.00
21129;BME280;10722;51.910;8.352;2022-12-29T00:42:48;99496.84;;;9.78;100.00
21129;BME280;10722;51.910;8.352;2022-12-29T00:45:33;99500.28;;;9.77;100.00
21129;BME280;10722;51.910;8.352;2022-12-29T00:48:19;99497.69;;;9.77;100.00
21129;BME280;10722;51.910;8.352;2022-12-29T00:51:04;99496.84;;;9.76;100.00
21129;BME280;10722;51.910;8.352;2022-12-29T00:53:49;99496.00;;;9.80;100.00
21129;BME280;10722;51.910;8.352;2022-12-29T00:56:34;99508.06;;;9.86;100.00
21129;BME280;10722;51.910;8.352;2022-12-29T00:59:20;99480.50;;;9.90;100.00
21129;BME280;10722;51.910;8.352;2022-12-29T01:02:06;99478.78;;;9.85;100.00
21129;BME280;10722;51.910;8.352;2022-12-29T01:04:52;99466.72;;;9.87;100.00
21129;BME280;10722;51.910;8.352;2022-12-29T01:07:37;99481.34;;;9.87;100.00
21129;BME280;10722;51.910;8.352;2022-12-29T01:10:22;99470.16;;;9.80;100.00
21129;BME280;10722;51.910;8.352;2022-12-29T01:13:07;99477.06;;;9.89;100.00
21129;BME280;10722;51.910;8.352;2022-12-29T01:15:53;99482.22;;;9.91;100.00
21129;BME280;10722;51.910;8.352;2022-12-29T01:18:39;99487.38;;;9.94;100.00
21129;BME280;10722;51.910;8.352;2022-12-29T01:21:25;99483.09;;;10.00;100.00
21129;BME280;10722;51.910;8.352;2022-12-29T01:24:10;99480.47;;;10.05;100.00
21129;BME280;10722;51.910;8.352;2022-12-29T01:26:55;99477.94;;;9.97;100.00
21129;BME280;10722;51.910;8.352;2022-12-29T01:29:41;99471.88;;;9.84;100.00
21129;BME280;10722;51.910;8.352;2022-12-29T01:32:26;99487.38;;;9.84;100.00
21129;BME280;10722;51.910;8.352;2022-12-29T01:35:12;99481.34;;;9.84;100.00
21129;BME280;10722;51.910;8.352;2022-12-29T01:37:58;99477.03;;;9.87;100.00
21129;BME280;10722;51.910;8.352;2022-12-29T01:40:45;99459.81;;;9.93;100.00
21129;BME280;10722;51.910;8.352;2022-12-29T01:43:57;99456.38;;;9.95;100.00
21129;BME280;10722;51.910;8.352;2022-12-29T01:46:47;99460.69;;;9.99;100.00
21129;BME280;10722;51.910;8.352;2022-12-29T01:49:34;99448.59;;;10.10;100.00
21129;BME280;10722;51.910;8.352;2022-12-29T01:52:19;99444.31;;;10.13;100.00
21129;BME280;10722;51.910;8.352;2022-12-29T01:55:04;99455.53;;;10.08;100.00
21129;BME280;10722;51.910;8.352;2022-12-29T01:57:52;99459.81;;;9.96;100.00
21129;BME280;10722;51.910;8.352;2022-12-29T02:00:38;99469.31;;;9.86;100.00
21129;BME280;10722;51.910;8.352;2022-12-29T02:03:25;99470.16;;;9.83;100.00
21129;BME280;10722;51.910;8.352;2022-12-29T02:06:21;99474.44;;;9.77;100.00
21129;BME280;10722;51.910;8.352;2022-12-29T02:09:07;99468.44;;;9.73;100.00
21129;BME280;10722;51.910;8.352;2022-12-29T02:11:52;99480.47;;;9.65;100.00
21129;BME280;10722;51.910;8.352;2022-12-29T02:14:38;99473.59;;;9.67;100.00
21129;BME280;10722;51.910;8.352;2022-12-29T02:17:34;99451.22;;;9.69;100.00
21129;BME280;10722;51.910;8.352;2022-12-29T02:20:44;99456.41;;;9.80;100.00
21129;BME280;10722;51.910;8.352;2022-12-29T02:30:14;99448.63;;;10.07;100.00
21129;BME280;10722;51.910;8.352;2022-12-29T02:36:01;99437.41;;;10.18;100.00
21129;BME280;10722;51.910;8.352;2022-12-29T02:39:32;99433.09;;;10.23;100.00
21129;BME280;10722;51.910;8.352;2022-12-29T02:42:36;99411.56;;;10.31;100.00
21129;BME280;10722;51.910;8.352;2022-12-29T02:45:35;99408.97;;;10.35;100.00
21129;BME280;10722;51.910;8.352;2022-12-29T02:48:30;99402.91;;;10.46;100.00
21129;BME280;10722;51.910;8.352;2022-12-29T02:51:57;99383.94;;;10.49;100.00
21129;BME280;10722;51.910;8.352;2022-12-29T02:54:43;99383.94;;;10.53;100.00
21129;BME280;10722;51.910;8.352;2022-12-29T02:57:34;99380.47;;;10.54;100.00
21129;BME280;10722;51.910;8.352;2022-12-29T03:00:19;99359.75;;;10.64;100.00
21129;BME280;10722;51.910;8.352;2022-12-29T03:03:19;99369.22;;;10.68;100.00
21129;BME280;10722;51.910;8.352;2022-12-29T03:12:45;99368.38;;;10.67;100.00
21129;BME280;10722;51.910;8.352;2022-12-29T03:18:51;99353.66;;;10.72;100.00
21129;BME280;10722;51.910;8.352;2022-12-29T03:21:47;99344.19;;;10.70;100.00
21129;BME280;10722;51.910;8.352;2022-12-29T03:24:38;99347.66;;;10.70;100.00
21129;BME280;10722;51.910;8.352;2022-12-29T03:27:29;99352.81;;;10.69;100.00
21129;BME280;10722;51.910;8.352;2022-12-29T03:30:16;99345.94;;;10.66;100.00
21129;BME280;10722;51.910;8.352;2022-12-29T03:33:04;99332.13;;;10.73;100.00
21129;BME280;10722;51.910;8.352;2022-12-29T03:35:54;99315.75;;;10.68;100.00
21129;BME280;10722;51.910;8.352;2022-12-29T03:38:56;99325.22;;;10.69;100.00
21129;BME280;10722;51.910;8.352;2022-12-29T03:41:44;99315.75;;;10.68;99.98
21129;BME280;10722;51.910;8.352;2022-12-29T03:44:42;99306.19;;;10.78;99.36
21129;BME280;10722;51.910;8.352;2022-12-29T03:47:28;99281.22;;;10.77;98.48
21129;BME280;10722;51.910;8.352;2022-12-29T03:50:13;99291.53;;;10.82;97.96
21129;BME280;10722;51.910;8.352;2022-12-29T03:52:58;99287.19;;;10.88;97.52
21129;BME280;10722;51.910;8.352;2022-12-29T03:55:43;99275.06;;;10.92;96.62
21129;BME280;10722;51.910;8.352;2022-12-29T03:58:29;99250.03;;;10.98;95.53
21129;BME280;10722;51.910;8.352;2022-12-29T04:01:14;99260.41;;;10.94;95.17
21129;BME280;10722;51.910;8.352;2022-12-29T04:04:01;99237.97;;;10.96;94.75
21129;BME280;10722;51.910;8.352;2022-12-29T04:06:47;99249.25;;;10.87;94.70
21129;BME280;10722;51.910;8.352;2022-12-29T04:09:32;99254.31;;;10.98;94.03
21129;BME280;10722;51.910;8.352;2022-12-29T04:12:16;99231.03;;;10.98;93.93
21129;BME280;10722;51.910;8.352;2022-12-29T04:15:02;99243.06;;;11.05;93.14
21129;BME280;10722;51.910;8.352;2022-12-29T04:17:47;99266.34;;;11.05;92.84
21129;BME280;10722;51.910;8.352;2022-12-29T04:20:33;99239.69;;;10.97;93.11
21129;BME280;10722;51.910;8.352;2022-12-29T04:23:18;99239.69;;;10.98;92.78
21129;BME280;10722;51.910;8.352;2022-12-29T04:26:03;99234.41;;;11.08;92.67
21129;BME280;10722;51.910;8.352;2022-12-29T04:28:48;99234.38;;;11.12;92.01
21129;BME280;10722;51.910;8.352;2022-12-29T04:31:33;99236.13;;;11.10;91.66
21129;BME280;10722;51.910;8.352;2022-12-29T04:34:19;99232.69;;;11.08;91.79
21129;BME280;10722;51.910;8.352;2022-12-29T04:37:04;99226.75;;;10.97;92.26
21129;BME280;10722;51.910;8.352;2022-12-29T04:39:49;99243.97;;;10.99;92.73
21129;BME280;10722;51.910;8.352;2022-12-29T04:42:34;99239.69;;;10.97;92.85
21129;BME280;10722;51.910;8.352;2022-12-29T04:45:19;99243.25;;;10.82;94.03
21129;BME280;10722;51.910;8.352;2022-12-29T04:48:05;99263.06;;;10.85;94.36
21129;BME280;10722;51.910;8.352;2022-12-29T04:50:50;99251.88;;;10.78;94.50
21129;BME280;10722;51.910;8.352;2022-12-29T04:53:35;99256.22;;;10.74;94.95
21129;BME280;10722;51.910;8.352;2022-12-29T04:56:21;99267.47;;;10.64;95.92
21129;BME280;10722;51.910;8.352;2022-12-29T04:59:06;99280.41;;;10.70;96.32
21129;BME280;10722;51.910;8.352;2022-12-29T05:01:51;99271.75;;;10.76;96.47
21129;BME280;10722;51.910;8.352;2022-12-29T05:04:37;99278.63;;;10.75;96.09
21129;BME280;10722;51.910;8.352;2022-12-29T05:07:22;99260.50;;;10.82;96.25
21129;BME280;10722;51.910;8.352;2022-12-29T05:10:08;99250.16;;;10.80;95.93
21129;BME280;10722;51.910;8.352;2022-12-29T05:12:53;99251.00;;;10.81;96.02
21129;BME280;10722;51.910;8.352;2022-12-29T05:15:38;99243.25;;;10.82;95.76
21129;BME280;10722;51.910;8.352;2022-12-29T05:18:24;99246.69;;;10.81;95.86
21129;BME280;10722;51.910;8.352;2022-12-29T05:21:09;99246.72;;;10.76;95.72
21129;BME280;10722;51.910;8.352;2022-12-29T05:23:54;99224.28;;;10.75;96.29
21129;BME280;10722;51.910;8.352;2022-12-29T05:26:39;99228.63;;;10.75;96.40
21129;BME280;10722;51.910;8.352;2022-12-29T05:29:25;99236.38;;;10.75;96.66
21129;BME280;10722;51.910;8.352;2022-12-29T05:32:10;99241.56;;;10.76;96.66
21129;BME280;10722;51.910;8.352;2022-12-29T05:34:55;99240.75;;;10.68;97.02
21129;BME280;10722;51.910;8.352;2022-12-29T05:37:39;99240.69;;;10.74;97.00
21129;BME280;10722;51.910;8.352;2022-12-29T05:40:25;99250.22;;;10.69;97.61
21129;BME280;10722;51.910;8.352;2022-12-29T05:43:10;99248.44;;;10.77;97.31
21129;BME280;10722;51.910;8.352;2022-12-29T05:45:55;99238.09;;;10.77;97.58
21129;BME280;10722;51.910;8.352;2022-12-29T05:48:40;99236.38;;;10.76;97.55
21129;BME280;10722;51.910;8.352;2022-12-29T05:51:26;99243.25;;;10.79;97.68
21129;BME280;10722;51.910;8.352;2022-12-29T05:54:11;99242.34;;;10.83;97.14
21129;BME280;10722;51.910;8.352;2022-12-29T05:56:56;99252.75;;;10.82;97.10
21129;BME280;10722;51.910;8.352;2022-12-29T05:59:42;99230.25;;;10.88;96.66
21129;BME280;10722;51.910;8.352;2022-12-29T06:02:27;99253.53;;;10.88;96.67
21129;BME280;10722;51.910;8.352;2022-12-29T06:05:12;99232.78;;;10.96;95.90
21129;BME280;10722;51.910;8.352;2022-12-29T06:07:57;99227.59;;;10.97;95.39
21129;BME280;10722;51.910;8.352;2022-12-29T06:10:43;99247.41;;;11.02;94.79
21129;BME280;10722;51.910;8.352;2022-12-29T06:13:28;99225.75;;;11.12;93.88
21129;BME280;10722;51.910;8.352;2022-12-29T06:16:13;99200.69;;;11.18;92.96
21129;BME280;10722;51.910;8.352;2022-12-29T06:18:58;99171.19;;;11.33;91.71
21129;BME280;10722;51.910;8.352;2022-12-29T06:21:43;99185.84;;;11.36;90.80
21129;BME280;10722;51.910;8.352;2022-12-29T06:24:28;99178.84;;;11.42;90.14
21129;BME280;10722;51.910;8.352;2022-12-29T06:27:13;99184.72;;;11.57;88.70
21129;BME280;10722;51.910;8.352;2022-12-29T06:29:58;99189.06;;;11.58;88.25
21129;BME280;10722;51.910;8.352;2022-12-29T06:32:44;99174.53;;;11.43;88.50
21129;BME280;10722;51.910;8.352;2022-12-29T06:35:29;99209.28;;;11.24;89.31
21129;BME280;10722;51.910;8.352;2022-12-29T06:38:14;99252.66;;;10.89;91.97
21129;BME280;10722;51.910;8.352;2022-12-29T06:41:00;99299.56;;;10.31;94.88
21129;BME280;10722;51.910;8.352;2022-12-29T06:43:45;99323.69;;;10.13;97.73
21129;BME280;10722;51.910;8.352;2022-12-29T06:46:30;99340.13;;;9.98;99.61
21129;BME280;10722;51.910;8.352;2022-12-29T06:49:15;99347.88;;;9.91;100.00
21129;BME280;10722;51.910;8.352;2022-12-29T06:52:01;99353.06;;;9.89;100.00
21129;BME280;10722;51.910;8.352;2022-12-29T06:54:53;99359.88;;;10.19;100.00
21129;BME280;10722;51.910;8.352;2022-12-29T06:57:37;99338.31;;;10.42;99.18
21129;BME280;10722;51.910;8.352;2022-12-29T07:00:24;99343.47;;;10.39;98.51
21129;BME280;10722;51.910;8.352;2022-12-29T07:03:09;99314.81;;;10.82;95.68
21129;BME280;10722;51.910;8.352;2022-12-29T07:05:55;99288.09;;;10.84;94.20
21129;BME280;10722;51.910;8.352;2022-12-29T07:08:40;99276.00;;;10.85;93.19
21129;BME280;10722;51.910;8.352;2022-12-29T07:11:25;99264.78;;;10.84;92.85
21129;BME280;10722;51.910;8.352;2022-12-29T07:14:11;99272.50;;;10.93;92.15
21129;BME280;10722;51.910;8.352;2022-12-29T07:16:56;99307.09;;;10.72;94.10
21129;BME280;10722;51.910;8.352;2022-12-29T07:19:42;99337.41;;;10.41;96.68
21129;BME280;10722;51.910;8.352;2022-12-29T07:22:26;99363.31;;;10.27;98.33
21129;BME280;10722;51.910;8.352;2022-12-29T07:25:11;99390.09;;;9.94;100.00
21129;BME280;10722;51.910;8.352;2022-12-29T07:27:57;99406.47;;;9.75;100.00
21129;BME280;10722;51.910;8.352;2022-12-29T07:30:42;99433.97;;;9.68;100.00
21129;BME280;10722;51.910;8.352;2022-12-29T07:33:31;99430.56;;;9.63;100.00
21129;BME280;10722;51.910;8.352;2022-12-29T07:36:16;99439.16;;;9.57;100.00
21129;BME280;10722;51.910;8.352;2022-12-29T07:39:02;99422.78;;;9.60;100.00
21129;BME280;10722;51.910;8.352;2022-12-29T07:41:47;99435.72;;;9.55;100.00
21129;BME280;10722;51.910;8.352;2022-12-29T07:44:32;99427.97;;;9.58;100.00
21129;BME280;10722;51.910;8.352;2022-12-29T07:47:25;99440.03;;;9.58;100.00
21129;BME280;10722;51.910;8.352;2022-12-29T07:50:10;99452.94;;;9.64;100.00
21129;BME280;10722;51.910;8.352;2022-12-29T07:52:55;99434.84;;;9.65;100.00
21129;BME280;10722;51.910;8.352;2022-12-29T07:55:41;99445.19;;;9.73;100.00
21129;BME280;10722;51.910;8.352;2022-12-29T07:58:26;99434.00;;;9.83;100.00
21129;BME280;10722;51.910;8.352;2022-12-29T08:01:11;99437.44;;;9.84;100.00
21129;BME280;10722;51.910;8.352;2022-12-29T08:03:56;99435.72;;;9.75;100.00
21129;BME280;10722;51.910;8.352;2022-12-29T08:06:42;99442.59;;;9.79;100.00
21129;BME280;10722;51.910;8.352;2022-12-29T08:09:27;99441.75;;;9.93;100.00
21129;BME280;10722;51.910;8.352;2022-12-29T08:12:12;99435.72;;;10.09;100.00
21129;BME280;10722;51.910;8.352;2022-12-29T08:14:57;99429.69;;;10.01;100.00
21129;BME280;10722;51.910;8.352;2022-12-29T08:17:43;99432.25;;;9.90;100.00
21129;BME280;10722;51.910;8.352;2022-12-29T08:20:28;99442.59;;;10.01;100.00
21129;BME280;10722;51.910;8.352;2022-12-29T08:23:13;99432.28;;;9.95;100.00
21129;BME280;10722;51.910;8.352;2022-12-29T08:25:59;99432.28;;;9.88;100.00
21129;BME280;10722;51.910;8.352;2022-12-29T08:28:44;99438.31;;;9.86;100.00
21129;BME280;10722;51.910;8.352;2022-12-29T08:31:30;99448.66;;;9.97;100.00
21129;BME280;10722;51.910;8.352;2022-12-29T08:34:15;99444.34;;;9.97;100.00
21129;BME280;10722;51.910;8.352;2022-12-29T08:37:01;99461.56;;;9.92;100.00
21129;BME280;10722;51.910;8.352;2022-12-29T08:39:46;99457.25;;;9.80;100.00
21129;BME280;10722;51.910;8.352;2022-12-29T08:42:31;99488.25;;;9.74;100.00
21129;BME280;10722;51.910;8.352;2022-12-29T08:45:16;99495.97;;;9.68;100.00
21129;BME280;10722;51.910;8.352;2022-12-29T08:48:01;99512.31;;;9.58;100.00
21129;BME280;10722;51.910;8.352;2022-12-29T08:50:48;99526.06;;;9.48;100.00
21129;BME280;10722;51.910;8.352;2022-12-29T08:53:34;99530.31;;;9.39;100.00
21129;BME280;10722;51.910;8.352;2022-12-29T08:56:19;99531.13;;;9.20;100.00
21129;BME280;10722;51.910;8.352;2022-12-29T08:59:04;99538.00;;;9.16;100.00
21129;BME280;10722;51.910;8.352;2022-12-29T09:01:49;99529.41;;;9.16;100.00
21129;BME280;10722;51.910;8.352;2022-12-29T09:04:34;99523.41;;;9.31;100.00
21129;BME280;10722;51.910;8.352;2022-12-29T09:07:19;99514.84;;;9.38;100.00
21129;BME280;10722;51.910;8.352;2022-12-29T09:10:05;99516.59;;;9.40;100.00
21129;BME280;10722;51.910;8.352;2022-12-29T09:12:51;99521.75;;;9.47;100.00
21129;BME280;10722;51.910;8.352;2022-12-29T09:15:37;99510.59;;;9.61;100.00
21129;BME280;10722;51.910;8.352;2022-12-29T09:18:22;99509.75;;;9.70;100.00
21129;BME280;10722;51.910;8.352;2022-12-29T09:21:10;99493.41;;;9.86;100.00
21129;BME280;10722;51.910;8.352;2022-12-29T09:23:55;99483.94;;;9.96;100.00
21129;BME280;10722;51.910;8.352;2022-12-29T09:26:41;99481.38;;;9.92;100.00
21129;BME280;10722;51.910;8.352;2022-12-29T09:29:31;99469.28;;;9.91;100.00
21129;BME280;10722;51.910;8.352;2022-12-29T09:32:16;99451.22;;;9.97;100.00
21129;BME280;10722;51.910;8.352;2022-12-29T09:35:04;99434.84;;;10.07;98.54
21129;BME280;10722;51.910;8.352;2022-12-29T09:37:49;99425.38;;;10.06;96.65
21129;BME280;10722;51.910;8.352;2022-12-29T09:40:34;99411.59;;;10.02;94.96
21129;BME280;10722;51.910;8.352;2022-12-29T09:43:32;99410.75;;;9.93;94.12
21129;BME280;10722;51.910;8.352;2022-12-29T09:46:33;99407.28;;;9.98;93.32
21129;BME280;10722;51.910;8.352;2022-12-29T09:52:23;99413.34;;;9.86;93.28
21129;BME280;10722;51.910;8.352;2022-12-29T09:55:12;99418.50;;;9.80;93.76
21129;BME280;10722;51.910;8.352;2022-12-29T09:58:03;99431.44;;;9.77;94.05
21129;BME280;10722;51.910;8.352;2022-12-29T10:03:52;99452.09;;;9.83;94.41
21129;BME280;10722;51.910;8.352;2022-12-29T10:06:46;99446.06;;;9.95;93.66
21129;BME280;10722;51.910;8.352;2022-12-29T10:16:06;99402.06;;;10.24;91.32
21129;BME280;10722;51.910;8.352;2022-12-29T10:19:24;99406.38;;;10.45;90.60
21129;BME280;10722;51.910;8.352;2022-12-29T10:25:25;99372.69;;;10.61;88.36
21129;BME280;10722;51.910;8.352;2022-12-29T10:28:40;99351.06;;;10.72;86.96
21129;BME280;10722;51.910;8.352;2022-12-29T10:31:36;99369.13;;;10.88;86.83
21129;BME280;10722;51.910;8.352;2022-12-29T10:37:19;99318.00;;;11.20;83.39
21129;BME280;10722;51.910;8.352;2022-12-29T10:40:24;99281.00;;;11.06;82.12
21129;BME280;10722;51.910;8.352;2022-12-29T10:43:25;99279.34;;;10.97;81.29
21129;BME280;10722;51.910;8.352;2022-12-29T10:46:14;99289.81;;;10.82;81.11
21129;BME280;10722;51.910;8.352;2022-12-29T10:49:01;99281.25;;;10.69;81.67
21129;BME280;10722;51.910;8.352;2022-12-29T10:51:48;99299.38;;;10.66;81.83
21129;BME280;10722;51.910;8.352;2022-12-29T10:54:49;99294.22;;;10.68;81.28
21129;BME280;10722;51.910;8.352;2022-12-29T10:57:43;99293.34;;;10.64;81.62
21129;BME280;10722;51.910;8.352;2022-12-29T11:00:29;99314.09;;;10.60;81.76
21129;BME280;10722;51.910;8.352;2022-12-29T11:06:14;99293.38;;;10.58;81.97
21129;BME280;10722;51.910;8.352;2022-12-29T11:09:13;99293.38;;;10.60;81.89
21129;BME280;10722;51.910;8.352;2022-12-29T11:12:00;99308.03;;;10.65;81.43
21129;BME280;10722;51.910;8.352;2022-12-29T11:14:46;99310.63;;;10.61;81.85
21129;BME280;10722;51.910;8.352;2022-12-29T11:17:42;99326.19;;;10.51;82.71
21129;BME280;10722;51.910;8.352;2022-12-29T11:23:34;99360.66;;;10.52;83.46
21129;BME280;10722;51.910;8.352;2022-12-29T11:26:21;99352.91;;;10.50;83.64
21129;BME280;10722;51.910;8.352;2022-12-29T11:29:20;99375.31;;;10.50;83.53
21129;BME280;10722;51.910;8.352;2022-12-29T11:32:21;99361.50;;;10.55;82.98
21129;BME280;10722;51.910;8.352;2022-12-29T11:35:30;99343.44;;;10.51;83.05
21129;BME280;10722;51.910;8.352;2022-12-29T11:38:21;99348.56;;;10.52;82.57
21129;BME280;10722;51.910;8.352;2022-12-29T11:41:12;99344.28;;;10.56;82.51
21129;BME280;10722;51.910;8.352;2022-12-29T11:44:00;99335.63;;;10.60;81.67
21129;BME280;10722;51.910;8.352;2022-12-29T11:46:50;99339.09;;;10.56;81.53
21129;BME280;10722;51.910;8.352;2022-12-29T11:49:36;99330.50;;;10.51;81.97
21129;BME280;10722;51.910;8.352;2022-12-29T11:52:23;99327.03;;;10.52;81.52
21129;BME280;10722;51.910;8.352;2022-12-29T11:55:21;99315.78;;;10.65;80.36
21129;BME280;10722;51.910;8.352;2022-12-29T11:58:14;99331.28;;;10.65;80.07
21129;BME280;10722;51.910;8.352;2022-12-29T12:01:05;99304.59;;;10.59;79.86
21129;BME280;10722;51.910;8.352;2022-12-29T12:04:01;99299.41;;;10.65;79.67
21129;BME280;10722;51.910;8.352;2022-12-29T12:09:58;99297.69;;;10.62;78.87
21129;BME280;10722;51.910;8.352;2022-12-29T12:13:18;99299.38;;;10.66;78.96
21129;BME280;10722;51.910;8.352;2022-12-29T12:16:13;99294.19;;;10.69;78.48
21129;BME280;10722;51.910;8.352;2022-12-29T12:19:04;99304.50;;;10.79;78.06
21129;BME280;10722;51.910;8.352;2022-12-29T12:25:26;99286.44;;;10.66;78.29
21129;BME280;10722;51.910;8.352;2022-12-29T12:28:21;99312.38;;;10.57;78.85
21129;BME280;10722;51.910;8.352;2022-12-29T12:34:27;99317.50;;;10.65;78.35
21129;BME280;10722;51.910;8.352;2022-12-29T13:07:24;99370.13;;;10.58;78.65
21129;BME280;10722;51.910;8.352;2022-12-29T13:22:21;99407.22;;;10.53;79.22
21129;BME280;10722;51.910;8.352;2022-12-29T13:31:34;99408.09;;;10.40;79.56
21129;BME280;10722;51.910;8.352;2022-12-29T13:34:35;99427.94;;;10.40;79.65
21129;BME280;10722;51.910;8.352;2022-12-29T13:37:26;99450.34;;;10.39;79.64
21129;BME280;10722;51.910;8.352;2022-12-29T13:40:16;99445.19;;;10.36;80.04
21129;BME280;10722;51.910;8.352;2022-12-29T13:43:02;99451.19;;;10.38;79.61
21129;BME280;10722;51.910;8.352;2022-12-29T13:45:57;99434.81;;;10.38;79.24
21129;BME280;10722;51.910;8.352;2022-12-29T13:48:58;99454.66;;;10.32;79.42
21129;BME280;10722;51.910;8.352;2022-12-29T13:51:49;99451.19;;;10.38;79.38
21129;BME280;10722;51.910;8.352;2022-12-29T14:03:45;99482.22;;;10.27;79.99
21129;BME280;10722;51.910;8.352;2022-12-29T14:06:34;99488.25;;;10.16;80.41
21129;BME280;10722;51.910;8.352;2022-12-29T14:12:31;99514.09;;;10.06;81.68
21129;BME280;10722;51.910;8.352;2022-12-29T14:15:22;99522.72;;;10.05;81.70
21129;BME280;10722;51.910;8.352;2022-12-29T14:18:15;99525.28;;;10.04;82.14
21129;BME280;10722;51.910;8.352;2022-12-29T14:21:19;99545.97;;;10.04;81.85
21129;BME280;10722;51.910;8.352;2022-12-29T14:33:30;99547.66;;;10.05;82.33
21129;BME280;10722;51.910;8.352;2022-12-29T14:36:26;99567.47;;;9.92;82.88
21129;BME280;10722;51.910;8.352;2022-12-29T14:39:27;99551.09;;;9.93;82.92
21129;BME280;10722;51.910;8.352;2022-12-29T14:42:19;99559.72;;;9.87;83.24
21129;BME280;10722;51.910;8.352;2022-12-29T14:45:27;99572.63;;;9.84;83.25
21129;BME280;10722;51.910;8.352;2022-12-29T14:48:35;99561.44;;;9.87;83.15
21129;BME280;10722;51.910;8.352;2022-12-29T14:51:34;99571.78;;;9.85;83.35
21129;BME280;10722;51.910;8.352;2022-12-29T14:54:41;99570.06;;;9.89;82.70
21129;BME280;10722;51.910;8.352;2022-12-29T14:57:28;99573.50;;;9.90;82.90
21129;BME280;10722;51.910;8.352;2022-12-29T15:00:18;99565.78;;;9.91;82.91
21129;BME280;10722;51.910;8.352;2022-12-29T15:06:04;99562.28;;;9.84;82.63
21129;BME280;10722;51.910;8.352;2022-12-29T15:09:06;99575.22;;;9.80;83.00
21129;BME280;10722;51.910;8.352;2022-12-29T15:12:01;99584.66;;;9.79;83.53
21129;BME280;10722;51.910;8.352;2022-12-29T15:14:55;99594.16;;;9.74;83.50
21129;BME280;10722;51.910;8.352;2022-12-29T15:17:41;99607.91;;;9.82;83.27
21129;BME280;10722;51.910;8.352;2022-12-29T15:20:29;99603.59;;;9.74;83.50
21129;BME280;10722;51.910;8.352;2022-12-29T15:23:16;99618.22;;;9.67;84.21
21129;BME280;10722;51.910;8.352;2022-12-29T15:26:06;99618.19;;;9.59;84.63
21129;BME280;10722;51.910;8.352;2022-12-29T15:28:52;99620.81;;;9.72;84.19
21129;BME280;10722;51.910;8.352;2022-12-29T15:31:46;99609.59;;;9.71;83.89
21129;BME280;10722;51.910;8.352;2022-12-29T15:34:31;99609.59;;;9.71;83.75
21129;BME280;10722;51.910;8.352;2022-12-29T15:37:26;99606.19;;;9.69;83.84
21129;BME280;10722;51.910;8.352;2022-12-29T15:40:22;99632.00;;;9.71;83.79
21129;BME280;10722;51.910;8.352;2022-12-29T15:43:25;99621.69;;;9.75;83.56
21129;BME280;10722;51.910;8.352;2022-12-29T15:46:14;99617.41;;;9.80;83.06
21129;BME280;10722;51.910;8.352;2022-12-29T15:49:05;99622.50;;;9.68;83.62
21129;BME280;10722;51.910;8.352;2022-12-29T15:51:50;99636.31;;;9.69;83.77
21129;BME280;10722;51.910;8.352;2022-12-29T15:54:36;99637.09;;;9.57;84.23
21129;BME280;10722;51.910;8.352;2022-12-29T15:57:43;99660.31;;;9.54;84.81
21129;BME280;10722;51.910;8.352;2022-12-29T16:00:34;99661.16;;;9.48;85.61
21129;BME280;10722;51.910;8.352;2022-12-29T16:03:20;99666.31;;;9.40;86.02
21129;BME280;10722;51.910;8.352;2022-12-29T16:06:26;99676.59;;;9.36;86.71
21129;BME280;10722;51.910;8.352;2022-12-29T16:09:16;99685.16;;;9.30;87.32
21129;BME280;10722;51.910;8.352;2022-12-29T16:12:07;99681.72;;;9.31;87.33
21129;BME280;10722;51.910;8.352;2022-12-29T16:15:11;99682.59;;;9.30;87.25
21129;BME280;10722;51.910;8.352;2022-12-29T16:17:58;99669.69;;;9.33;87.06
21129;BME280;10722;51.910;8.352;2022-12-29T16:20:43;99681.69;;;9.28;87.03
21129;BME280;10722;51.910;8.352;2022-12-29T16:23:29;99666.31;;;9.45;85.82
21129;BME280;10722;51.910;8.352;2022-12-29T16:26:17;99644.00;;;9.62;84.58
21129;BME280;10722;51.910;8.352;2022-12-29T16:29:05;99643.97;;;9.53;84.27
21129;BME280;10722;51.910;8.352;2022-12-29T16:31:53;99619.91;;;9.65;83.37
21129;BME280;10722;51.910;8.352;2022-12-29T16:40:27;99594.13;;;9.73;82.01
21129;BME280;10722;51.910;8.352;2022-12-29T16:43:22;99585.50;;;9.77;80.97
21129;BME280;10722;51.910;8.352;2022-12-29T16:49:15;99582.06;;;9.73;80.45
21129;BME280;10722;51.910;8.352;2022-12-29T16:55:04;99592.41;;;9.69;80.64
21129;BME280;10722;51.910;8.352;2022-12-29T16:57:52;99574.31;;;9.79;80.12
21129;BME280;10722;51.910;8.352;2022-12-29T17:00:38;99586.34;;;9.68;80.29
21129;BME280;10722;51.910;8.352;2022-12-29T17:03:29;99583.78;;;9.73;80.08
21129;BME280;10722;51.910;8.352;2022-12-29T17:06:17;99585.53;;;9.75;80.02
21129;BME280;10722;51.910;8.352;2022-12-29T17:09:16;99590.69;;;9.69;80.22
21129;BME280;10722;51.910;8.352;2022-12-29T17:12:02;99595.81;;;9.68;80.08
21129;BME280;10722;51.910;8.352;2022-12-29T17:14:59;99611.34;;;9.66;80.38
21129;BME280;10722;51.910;8.352;2022-12-29T17:17:46;99613.03;;;9.64;80.44